Time;durP1;ratioP1;P1;durP2;ratioP2;P2;SDS_P1;SDS_P2;PMS_P1;PMS_P2;Temp;Humidity;BMP_temperature;BMP_pressure;BME280_temperature;BME280_humidity;BME280_pressure;Samples;Min_cycle;Max_cycle;Signal;HPM_P1;HPM_P2
2022/12/27 00:01:20;;;;;;;10.35;2.05;;;3.90;99.90;;;;;;4956544;28;20043;-85
2022/12/27 00:03:46;;;;;;;17.10;2.53;;;3.90;99.90;;;;;;4964137;28;20073;-85
2022/12/27 00:06:15;;;;;;;12.18;2.33;;;3.90;99.90;;;;;;4968094;28;20058;-84
2022/12/27 00:08:42;;;;;;;10.15;2.28;;;3.90;99.90;;;;;;4991776;28;20046;-85
2022/12/27 00:11:10;;;;;;;10.00;2.28;;;3.90;99.90;;;;;;4957465;28;20084;-85
2022/12/27 00:13:36;;;;;;;13.18;2.50;;;4.00;99.90;;;;;;4990932;28;20066;-85
2022/12/27 00:16:04;;;;;;;13.48;2.88;;;4.00;99.90;;;;;;4976165;28;20506;-85
2022/12/27 00:18:30;;;;;;;13.23;2.40;;;4.00;99.90;;;;;;4960685;28;20061;-85
2022/12/27 00:21:00;;;;;;;11.05;2.35;;;4.00;99.90;;;;;;4955459;28;20042;-85
2022/12/27 00:23:26;;;;;;;11.63;2.00;;;4.00;99.90;;;;;;4968878;28;20052;-85
2022/12/27 00:27:17;;;;;;;11.82;2.10;;;4.00;99.90;;;;;;4975404;28;20049;-85
2022/12/27 00:29:36;;;;;;;9.93;2.20;;;4.00;99.90;;;;;;4936015;28;20058;-85
2022/12/27 00:32:01;;;;;;;11.00;2.40;;;4.10;99.90;;;;;;4977684;28;20050;-85
2022/12/27 00:34:27;;;;;;;12.10;2.40;;;4.10;99.90;;;;;;4959027;28;20398;-86
2022/12/27 00:36:53;;;;;;;11.93;2.17;;;4.10;99.90;;;;;;4979776;28;20050;-85
2022/12/27 00:39:18;;;;;;;16.33;2.60;;;4.20;99.90;;;;;;4978796;28;20042;-86
2022/12/27 00:41:45;;;;;;;18.30;2.50;;;4.20;99.90;;;;;;4978341;28;20528;-86
2022/12/27 00:44:10;;;;;;;12.20;2.22;;;4.20;99.90;;;;;;4979071;28;20060;-86
2022/12/27 00:46:36;;;;;;;10.20;2.58;;;4.20;99.90;;;;;;4995106;28;20054;-84
2022/12/27 00:49:02;;;;;;;15.98;2.70;;;4.10;99.90;;;;;;4976501;28;20039;-86
2022/12/27 00:51:27;;;;;;;10.30;2.25;;;4.10;99.90;;;;;;4960602;28;20105;-86
2022/12/27 00:53:53;;;;;;;12.68;2.50;;;4.10;99.90;;;;;;4960220;28;20137;-86
2022/12/27 00:56:26;;;;;;;11.98;2.58;;;4.10;99.90;;;;;;4975850;28;20078;-86
2022/12/27 00:58:53;;;;;;;10.02;2.83;;;4.10;99.90;;;;;;4976928;28;20042;-86
2022/12/27 01:01:20;;;;;;;12.65;2.25;;;4.10;99.90;;;;;;4977890;28;20053;-86
2022/12/27 01:03:46;;;;;;;10.43;2.30;;;4.10;99.90;;;;;;4974238;28;20050;-86
2022/12/27 01:06:16;;;;;;;9.68;2.10;;;4.00;99.90;;;;;;4961873;28;20146;-86
2022/12/27 01:08:43;;;;;;;10.00;2.85;;;4.10;99.90;;;;;;4966245;28;20038;-85
2022/12/27 01:11:10;;;;;;;11.82;2.47;;;4.10;99.90;;;;;;4995657;28;20044;-86
2022/12/27 01:13:36;;;;;;;10.90;2.28;;;4.10;99.90;;;;;;4967439;28;20046;-86
2022/12/27 01:16:17;;;;;;;11.80;2.28;;;4.10;99.90;;;;;;4959920;28;20042;-86
2022/12/27 01:18:43;;;;;;;11.10;2.20;;;4.10;99.90;;;;;;4960371;28;20047;-86
2022/12/27 01:21:11;;;;;;;9.93;2.40;;;4.00;99.90;;;;;;4960696;28;20058;-86
2022/12/27 01:23:38;;;;;;;9.48;2.22;;;4.10;99.90;;;;;;4969070;28;20051;-86
2022/12/27 01:26:06;;;;;;;9.65;2.05;;;4.10;99.90;;;;;;4978979;28;20069;-86
2022/12/27 01:28:31;;;;;;;13.10;2.63;;;4.00;99.90;;;;;;4966591;28;20050;-85
2022/12/27 01:30:57;;;;;;;13.88;2.35;;;4.00;99.90;;;;;;4958750;28;20042;-85
2022/12/27 01:33:23;;;;;;;9.15;2.10;;;4.10;99.90;;;;;;4970462;28;20395;-86
2022/12/27 01:35:48;;;;;;;8.85;2.13;;;4.00;99.90;;;;;;4995314;28;20090;-86
2022/12/27 01:38:14;;;;;;;15.40;2.25;;;4.00;99.90;;;;;;4994235;28;20475;-86
2022/12/27 01:40:40;;;;;;;12.18;2.53;;;4.00;99.90;;;;;;4977707;28;20475;-86
2022/12/27 01:43:17;;;;;;;11.32;2.50;;;4.10;99.90;;;;;;4978196;28;20034;-85
2022/12/27 01:45:44;;;;;;;13.27;2.10;;;4.00;99.90;;;;;;4974255;28;20483;-85
2022/12/27 01:48:18;;;;;;;11.25;2.25;;;4.10;99.90;;;;;;4977239;28;20121;-85
2022/12/27 01:50:48;;;;;;;11.25;2.10;;;4.00;99.90;;;;;;4959029;28;20051;-85
2022/12/27 01:53:18;;;;;;;10.30;2.22;;;4.10;99.90;;;;;;4980623;28;20039;-85
2022/12/27 01:55:55;;;;;;;14.30;2.20;;;4.10;99.90;;;;;;4996020;28;20125;-85
2022/12/27 01:58:26;;;;;;;15.00;2.40;;;4.10;99.90;;;;;;4970019;28;20031;-85
2022/12/27 02:00:52;;;;;;;11.38;2.22;;;4.10;99.90;;;;;;4959169;28;20509;-85
2022/12/27 02:03:23;;;;;;;11.13;2.20;;;4.10;99.90;;;;;;4958836;28;20031;-85
2022/12/27 02:05:50;;;;;;;13.20;2.10;;;4.10;99.90;;;;;;4958210;28;20490;-86
2022/12/27 02:08:37;;;;;;;13.02;2.30;;;4.10;99.90;;;;;;4958439;28;20470;-85
2022/12/27 02:11:04;;;;;;;14.82;2.45;;;4.10;99.90;;;;;;4965993;28;20045;-85
2022/12/27 02:13:33;;;;;;;14.43;2.15;;;4.10;99.90;;;;;;4974579;28;20073;-85
2022/12/27 02:15:59;;;;;;;15.20;2.33;;;4.10;99.90;;;;;;4958712;28;20093;-85
2022/12/27 02:18:24;;;;;;;13.38;2.55;;;4.20;99.90;;;;;;4958288;28;20038;-85
2022/12/27 02:21:28;;;;;;;9.07;1.90;;;4.10;99.90;;;;;;4975296;28;20094;-85
2022/12/27 02:24:43;;;;;;;13.90;2.05;;;4.20;99.90;;;;;;4946587;28;20137;-86
2022/12/27 02:27:30;;;;;;;10.20;1.90;;;4.20;99.90;;;;;;4895898;29;20157;-85
2022/12/27 02:30:06;;;;;;;11.23;1.95;;;4.20;99.90;;;;;;4897316;29;20040;-85
2022/12/27 02:32:48;;;;;;;11.77;2.10;;;4.20;99.90;;;;;;4933021;28;20058;-85
2022/12/27 02:35:19;;;;;;;10.35;1.90;;;4.30;99.90;;;;;;4974525;28;20490;-84
2022/12/27 02:37:56;;;;;;;11.75;2.08;;;4.30;99.90;;;;;;4958558;28;20043;-85
2022/12/27 02:54:41;;;;;;;14.63;2.35;;;4.50;99.90;;;;;;4971375;28;20049;-85
2022/12/27 02:57:28;;;;;;;10.40;2.30;;;4.50;99.90;;;;;;4970627;28;20137;-85
2022/12/27 03:03:22;;;;;;;10.98;2.38;;;4.50;99.90;;;;;;4957143;28;20098;-86
2022/12/27 03:06:40;;;;;;;10.98;2.25;;;4.50;99.90;;;;;;4957659;28;20058;-86
2022/12/27 03:15:54;;;;;;;12.43;2.15;;;4.50;99.90;;;;;;4950498;28;20042;-86
2022/12/27 03:18:45;;;;;;;13.10;2.40;;;4.60;99.90;;;;;;4967109;28;20058;-85
2022/12/27 03:26:48;;;;;;;11.70;1.95;;;4.60;99.90;;;;;;4946905;28;20105;-85
2022/12/27 03:35:14;;;;;;;12.55;2.00;;;4.60;99.90;;;;;;4983330;28;20046;-85
2022/12/27 03:38:04;;;;;;;12.88;2.08;;;4.60;99.90;;;;;;4956239;28;20047;-85
2022/12/27 03:43:34;;;;;;;12.13;2.47;;;4.50;99.90;;;;;;4974197;28;20055;-85
2022/12/27 03:46:32;;;;;;;8.98;1.88;;;4.50;99.90;;;;;;4974201;28;20057;-86
2022/12/27 03:49:15;;;;;;;13.85;2.15;;;4.50;99.90;;;;;;4958568;28;20070;-86
2022/12/27 03:51:47;;;;;;;14.23;2.30;;;4.50;99.90;;;;;;4973464;28;20058;-85
2022/12/27 03:54:25;;;;;;;15.43;2.53;;;4.50;99.90;;;;;;4974138;28;20118;-86
2022/12/27 03:56:57;;;;;;;12.70;2.40;;;4.50;99.90;;;;;;4974418;28;20480;-86
2022/12/27 03:59:23;;;;;;;15.57;2.63;;;4.50;99.90;;;;;;4973369;28;20046;-86
2022/12/27 04:01:48;;;;;;;13.77;2.10;;;4.50;99.90;;;;;;4975987;28;20042;-85
2022/12/27 04:04:14;;;;;;;14.27;2.20;;;4.50;99.90;;;;;;4967739;28;20055;-86
2022/12/27 04:06:39;;;;;;;9.55;1.88;;;4.50;99.90;;;;;;4988373;28;20077;-86
2022/12/27 04:36:27;;;;;;;11.15;1.73;;;4.40;99.90;;;;;;4973249;28;20562;-85
2022/12/27 04:38:52;;;;;;;13.48;2.42;;;4.40;99.90;;;;;;4956377;28;20129;-85
2022/12/27 04:55:22;;;;;;;16.58;2.08;;;4.50;99.90;;;;;;4975910;28;20046;-85
2022/12/27 04:57:49;;;;;;;6.65;1.50;;;4.50;99.90;;;;;;4937476;29;20043;-86
2022/12/27 05:03:03;;;;;;;7.47;1.60;;;4.50;99.90;;;;;;4960228;28;20047;-85
2022/12/27 05:05:28;;;;;;;12.52;1.92;;;4.50;99.90;;;;;;4945091;28;20052;-86
2022/12/27 05:16:08;;;;;;;8.57;1.75;;;4.40;99.90;;;;;;4952682;29;20499;-86
2022/12/27 05:18:33;;;;;;;8.00;1.70;;;4.40;99.90;;;;;;4956941;29;20035;-86
2022/12/27 05:21:04;;;;;;;8.93;1.88;;;4.40;99.90;;;;;;4957634;28;20380;-84
2022/12/27 05:26:25;;;;;;;7.97;1.70;;;4.40;99.90;;;;;;4970947;28;20047;-85
2022/12/27 05:28:52;;;;;;;10.73;1.80;;;4.40;99.90;;;;;;4957201;29;20078;-84
2022/12/27 05:31:20;;;;;;;8.52;1.85;;;4.40;99.90;;;;;;4939664;29;20058;-85
2022/12/27 05:33:46;;;;;;;12.50;1.83;;;4.40;99.90;;;;;;4938904;29;20043;-85
2022/12/27 05:36:12;;;;;;;9.27;2.00;;;4.30;99.90;;;;;;4960230;28;20035;-85
2022/12/27 05:38:38;;;;;;;8.93;1.38;;;4.30;99.90;;;;;;4967423;28;20125;-85
2022/12/27 05:41:04;;;;;;;10.00;1.75;;;4.30;99.90;;;;;;4975947;28;20039;-84
2022/12/27 05:43:31;;;;;;;13.07;1.98;;;4.30;99.90;;;;;;4958245;28;20050;-85
2022/12/27 05:46:06;;;;;;;10.68;1.70;;;4.30;99.90;;;;;;4967098;28;20042;-87
2022/12/27 05:48:32;;;;;;;9.55;1.60;;;4.30;99.90;;;;;;4958928;28;20054;-86
2022/12/27 05:51:02;;;;;;;8.73;1.25;;;4.20;99.90;;;;;;4958131;28;20054;-86
2022/12/27 05:53:28;;;;;;;12.80;2.10;;;4.20;99.90;;;;;;4976475;28;20092;-86
2022/12/27 05:55:55;;;;;;;12.23;2.10;;;4.20;99.90;;;;;;4959459;28;20145;-86
2022/12/27 05:58:21;;;;;;;8.85;1.42;;;4.20;99.90;;;;;;4958441;28;20043;-86
2022/12/27 06:00:46;;;;;;;12.48;1.80;;;4.20;99.90;;;;;;4940797;28;20043;-85
2022/12/27 06:03:12;;;;;;;12.93;1.90;;;4.20;99.90;;;;;;4952047;28;20073;-86
2022/12/27 06:05:37;;;;;;;9.45;1.70;;;4.20;99.90;;;;;;4957407;28;20406;-86
2022/12/27 06:08:03;;;;;;;8.85;1.90;;;4.20;99.90;;;;;;4974540;28;20078;-86
2022/12/27 06:10:29;;;;;;;10.90;1.73;;;4.20;99.90;;;;;;4963521;28;20138;-86
2022/12/27 06:20:21;;;;;;;11.40;1.70;;;4.20;99.90;;;;;;4955871;28;20058;-86
2022/12/27 06:22:47;;;;;;;8.65;1.58;;;4.20;99.90;;;;;;4974949;28;20039;-86
2022/12/27 06:25:13;;;;;;;8.23;1.20;;;4.20;99.90;;;;;;4972934;28;20515;-86
2022/12/27 06:27:39;;;;;;;8.80;1.30;;;4.20;99.90;;;;;;4956348;28;20118;-85
2022/12/27 06:30:06;;;;;;;9.75;1.45;;;4.20;99.90;;;;;;4974347;28;20147;-85
2022/12/27 06:32:32;;;;;;;8.02;1.50;;;4.20;99.90;;;;;;4956398;28;20051;-86
2022/12/27 06:34:58;;;;;;;9.13;1.70;;;4.20;99.90;;;;;;4956914;28;20046;-86
2022/12/27 06:37:24;;;;;;;7.38;1.40;;;4.20;99.90;;;;;;4956858;28;20065;-86
2022/12/27 06:39:49;;;;;;;7.50;1.60;;;4.10;99.90;;;;;;4973199;28;20046;-86
2022/12/27 06:42:15;;;;;;;11.15;1.67;;;4.10;99.90;;;;;;4959858;28;20047;-86
2022/12/27 06:44:40;;;;;;;8.38;1.60;;;4.10;99.90;;;;;;4963908;28;20034;-86
2022/12/27 06:47:06;;;;;;;12.27;1.60;;;4.10;99.90;;;;;;4980283;28;20534;-86
2022/12/27 06:49:31;;;;;;;12.18;2.00;;;4.10;99.90;;;;;;4957975;28;20061;-86
2022/12/27 06:51:57;;;;;;;13.23;2.05;;;4.10;99.90;;;;;;4958010;28;20057;-88
2022/12/27 06:54:23;;;;;;;11.75;1.77;;;4.10;99.90;;;;;;4974124;28;20047;-86
2022/12/27 06:56:48;;;;;;;12.60;2.08;;;4.10;99.90;;;;;;4960174;28;20062;-86
2022/12/27 06:59:14;;;;;;;10.63;1.80;;;4.10;99.90;;;;;;4958598;28;20043;-85
2022/12/27 07:01:41;;;;;;;6.10;1.50;;;4.10;99.90;;;;;;4969464;28;20138;-87
2022/12/27 07:04:08;;;;;;;11.02;1.80;;;4.10;99.90;;;;;;4986349;28;20054;-86
2022/12/27 07:06:36;;;;;;;8.55;1.98;;;4.10;99.90;;;;;;4959420;28;20051;-85
2022/12/27 07:09:02;;;;;;;8.60;1.42;;;4.10;99.90;;;;;;4993420;28;20629;-87
2022/12/27 07:11:31;;;;;;;8.80;1.38;;;4.10;99.90;;;;;;4976915;28;20073;-87
2022/12/27 07:13:57;;;;;;;8.93;1.50;;;4.10;99.90;;;;;;4987647;28;20097;-86
2022/12/27 07:16:25;;;;;;;8.05;1.63;;;4.10;99.90;;;;;;4975307;28;20133;-86
2022/12/27 07:18:52;;;;;;;10.30;2.20;;;4.00;99.90;;;;;;4966750;28;20045;-87
2022/12/27 07:21:20;;;;;;;10.30;1.73;;;4.00;99.90;;;;;;4976844;28;20049;-86
2022/12/27 07:23:47;;;;;;;14.00;1.88;;;4.00;99.90;;;;;;4962667;28;20049;-87
2022/12/27 07:26:15;;;;;;;8.32;1.85;;;4.00;99.90;;;;;;4971943;28;20495;-86
2022/12/27 07:28:41;;;;;;;10.50;1.80;;;4.00;99.90;;;;;;4955952;28;20571;-86
2022/12/27 07:31:17;;;;;;;12.45;1.42;;;4.00;99.90;;;;;;4966150;28;20039;-87
2022/12/27 07:33:44;;;;;;;9.18;1.90;;;3.90;99.90;;;;;;4977947;28;20039;-86
2022/12/27 07:36:13;;;;;;;8.90;1.95;;;3.90;99.90;;;;;;4957211;28;20066;-86
2022/12/27 07:38:39;;;;;;;10.30;1.70;;;3.90;99.90;;;;;;4955497;28;20038;-86
2022/12/27 07:41:05;;;;;;;7.32;1.80;;;3.90;99.90;;;;;;4955732;28;20038;-87
2022/12/27 07:43:32;;;;;;;10.65;1.88;;;3.90;99.90;;;;;;4956403;28;20046;-87
2022/12/27 07:46:16;;;;;;;7.82;1.63;;;3.90;99.90;;;;;;4990388;28;20047;-86
2022/12/27 07:48:41;;;;;;;;;;;3.90;99.90;;;;;;4965884;28;20043;-87
2022/12/27 07:51:08;;;;;;;12.40;2.63;;;3.80;99.90;;;;;;4975061;28;20369;-87
2022/12/27 07:53:34;;;;;;;7.70;1.50;;;3.80;99.90;;;;;;4976483;28;20046;-87
2022/12/27 07:56:12;;;;;;;10.65;1.98;;;3.80;99.90;;;;;;4980268;28;20042;-87
2022/12/27 07:58:40;;;;;;;12.55;2.20;;;3.80;99.90;;;;;;4955961;28;20469;-86
2022/12/27 08:01:06;;;;;;;12.75;1.88;;;3.80;99.90;;;;;;4991134;28;20418;-86
2022/12/27 08:03:32;;;;;;;15.50;2.47;;;3.80;99.90;;;;;;4962072;28;20054;-86
2022/12/27 08:05:58;;;;;;;9.30;2.45;;;3.80;99.90;;;;;;4957868;28;20046;-87
2022/12/27 08:08:29;;;;;;;8.45;1.58;;;3.80;99.90;;;;;;4956328;28;20403;-86
2022/12/27 08:10:54;;;;;;;10.82;2.03;;;3.80;99.90;;;;;;4970631;28;20114;-86
2022/12/27 08:13:20;;;;;;;9.45;1.90;;;3.80;99.90;;;;;;4993747;28;20372;-87
2022/12/27 08:15:46;;;;;;;8.32;1.60;;;3.80;99.90;;;;;;4956849;28;20047;-87
2022/12/27 08:18:11;;;;;;;5.97;1.45;;;3.80;99.90;;;;;;4955597;28;20047;-88
2022/12/27 08:20:37;;;;;;;9.95;1.95;;;3.80;99.90;;;;;;4974171;28;20101;-86
2022/12/27 08:23:02;;;;;;;9.20;1.80;;;3.80;99.90;;;;;;4957169;28;20118;-87
2022/12/27 08:25:28;;;;;;;12.85;2.00;;;3.80;99.90;;;;;;4956537;28;20050;-87
2022/12/27 08:28:10;;;;;;;8.65;2.15;;;3.80;99.90;;;;;;4975927;28;20047;-85
2022/12/27 08:30:37;;;;;;;10.05;2.00;;;3.80;99.90;;;;;;4972407;28;20051;-86
2022/12/27 08:33:03;;;;;;;8.55;2.28;;;3.80;99.90;;;;;;4956897;28;20177;-87
2022/12/27 08:35:29;;;;;;;12.73;2.42;;;3.70;99.90;;;;;;4962832;28;20129;-87
2022/12/27 08:37:55;;;;;;;17.17;3.03;;;3.80;99.90;;;;;;4971179;28;21575;-87
2022/12/27 08:40:21;;;;;;;13.35;2.83;;;3.80;99.90;;;;;;4955300;28;20039;-87
2022/12/27 08:42:46;;;;;;;12.20;2.67;;;3.80;99.90;;;;;;4960043;28;20030;-84
2022/12/27 08:45:12;;;;;;;13.23;2.25;;;3.80;99.90;;;;;;4992128;28;20467;-84
2022/12/27 08:47:38;;;;;;;8.07;2.38;;;3.80;99.90;;;;;;4964884;28;20050;-84
2022/12/27 08:50:06;;;;;;;11.85;2.30;;;3.80;99.90;;;;;;4970568;28;20053;-84
2022/12/27 08:52:32;;;;;;;15.30;2.10;;;3.80;99.90;;;;;;4979780;28;20046;-84
2022/12/27 08:54:57;;;;;;;19.83;2.60;;;3.80;99.90;;;;;;4965527;28;20102;-85
2022/12/27 08:57:23;;;;;;;11.02;2.70;;;3.80;99.90;;;;;;4969632;28;20474;-85
2022/12/27 08:59:48;;;;;;;11.07;2.28;;;3.80;99.90;;;;;;4977937;28;20050;-86
2022/12/27 09:02:14;;;;;;;11.77;1.90;;;3.80;99.90;;;;;;4990966;28;20043;-87
2022/12/27 09:04:40;;;;;;;10.90;2.13;;;3.80;99.90;;;;;;4959622;28;20043;-84
2022/12/27 09:07:05;;;;;;;10.65;2.08;;;3.80;99.90;;;;;;4976410;28;20039;-83
2022/12/27 09:09:31;;;;;;;13.10;2.28;;;3.80;99.90;;;;;;4960213;28;20070;-83
2022/12/27 09:11:57;;;;;;;11.07;2.38;;;3.80;99.90;;;;;;4984574;28;20050;-84
2022/12/27 09:14:22;;;;;;;10.02;1.80;;;3.80;99.90;;;;;;4976922;28;20042;-84
2022/12/27 09:16:48;;;;;;;11.00;2.55;;;3.80;99.90;;;;;;4979293;28;20129;-86
2022/12/27 09:19:14;;;;;;;13.10;2.58;;;3.80;99.90;;;;;;4971994;28;20050;-91
2022/12/27 09:21:41;;;;;;;12.38;2.50;;;3.90;99.90;;;;;;4958711;28;20065;-85
2022/12/27 09:24:09;;;;;;;14.85;2.95;;;3.90;99.90;;;;;;4959996;28;20365;-85
2022/12/27 09:26:35;;;;;;;10.80;2.38;;;4.00;99.90;;;;;;4977239;28;20045;-87
2022/12/27 09:29:01;;;;;;;12.45;2.47;;;4.00;99.90;;;;;;4959053;28;20058;-84
2022/12/27 09:31:27;;;;;;;16.42;2.45;;;4.00;99.90;;;;;;4959593;28;20055;-85
2022/12/27 09:33:53;;;;;;;9.27;2.50;;;4.10;99.90;;;;;;4959770;28;20058;-85
2022/12/27 09:36:28;;;;;;;13.27;2.50;;;4.10;99.90;;;;;;4958834;28;20535;-85
2022/12/27 09:38:55;;;;;;;13.68;2.30;;;4.10;99.90;;;;;;4977057;28;20117;-85
2022/12/27 09:41:42;;;;;;;10.25;2.03;;;4.10;99.90;;;;;;4976597;28;20050;-85
2022/12/27 09:44:32;;;;;;;8.13;2.10;;;4.20;99.90;;;;;;4975572;28;20134;-85
2022/12/27 09:47:19;;;;;;;15.75;3.00;;;4.20;99.90;;;;;;4959729;28;20478;-85
2022/12/27 09:50:10;;;;;;;14.90;2.78;;;4.20;99.90;;;;;;4958619;28;20112;-85
2022/12/27 09:52:48;;;;;;;16.23;2.45;;;4.20;99.90;;;;;;4959377;28;20443;-85
2022/12/27 09:55:19;;;;;;;17.88;3.28;;;4.30;99.90;;;;;;4959209;28;20549;-85
2022/12/27 09:57:46;;;;;;;11.95;2.58;;;4.30;99.90;;;;;;4958628;28;20050;-85
2022/12/27 10:00:16;;;;;;;13.50;3.05;;;4.30;99.90;;;;;;4958666;28;20057;-85
2022/12/27 10:02:43;;;;;;;15.95;2.95;;;4.40;99.90;;;;;;4959145;28;20637;-85
2022/12/27 10:05:32;;;;;;;15.85;2.90;;;4.40;99.90;;;;;;4957805;28;20066;-85
2022/12/27 10:08:23;;;;;;;19.27;4.20;;;4.50;99.90;;;;;;4959129;28;20047;-85
2022/12/27 10:11:07;;;;;;;12.63;3.00;;;4.50;99.90;;;;;;4975051;28;20098;-85
2022/12/27 10:13:45;;;;;;;20.33;3.80;;;4.50;99.90;;;;;;4956377;28;20085;-86
2022/12/27 10:16:38;;;;;;;12.75;2.60;;;4.50;99.90;;;;;;4962437;28;20065;-86
2022/12/27 10:19:22;;;;;;;13.45;2.25;;;4.60;99.90;;;;;;4950689;28;20106;-86
2022/12/27 10:21:53;;;;;;;22.92;3.00;;;4.60;99.90;;;;;;4958975;28;20046;-86
2022/12/27 10:24:30;;;;;;;19.92;3.00;;;4.60;99.90;;;;;;4974731;28;20074;-86
2022/12/27 10:26:56;;;;;;;16.42;2.63;;;4.60;99.90;;;;;;4980893;28;20117;-86
2022/12/27 10:29:24;;;;;;;16.45;2.50;;;4.70;99.90;;;;;;4977559;28;20137;-85
2022/12/27 10:31:50;;;;;;;18.73;2.63;;;4.70;99.90;;;;;;4976307;28;20043;-86
2022/12/27 10:34:22;;;;;;;12.27;2.28;;;4.70;99.90;;;;;;4957653;28;20117;-85
2022/12/27 10:36:50;;;;;;;14.60;2.23;;;4.80;99.90;;;;;;4958442;28;20042;-86
2022/12/27 10:39:25;;;;;;;15.75;2.92;;;4.80;99.90;;;;;;4963522;28;20084;-86
2022/12/27 10:42:09;;;;;;;14.73;2.67;;;4.80;99.90;;;;;;4975539;28;20487;-86
2022/12/27 10:44:35;;;;;;;16.40;3.03;;;4.90;99.90;;;;;;4957403;28;20047;-85
2022/12/27 10:47:01;;;;;;;14.10;2.53;;;5.00;99.90;;;;;;4974280;28;20047;-85
2022/12/27 10:49:27;;;;;;;9.63;2.17;;;5.00;99.90;;;;;;4983030;28;20157;-85
2022/12/27 10:51:56;;;;;;;11.65;2.65;;;5.00;99.90;;;;;;4946406;28;20039;-85
2022/12/27 10:54:27;;;;;;;17.63;2.75;;;5.10;99.90;;;;;;4976090;28;20050;-87
2022/12/27 10:56:54;;;;;;;16.50;2.80;;;5.10;99.90;;;;;;4974142;28;20427;-87
2022/12/27 10:59:27;;;;;;;18.90;3.17;;;5.20;99.90;;;;;;4956992;28;20436;-86
2022/12/27 11:01:59;;;;;;;11.18;2.58;;;5.20;99.90;;;;;;4974687;28;20078;-86
2022/12/27 11:04:26;;;;;;;14.45;3.45;;;5.20;99.90;;;;;;4965921;28;20057;-85
2022/12/27 11:07:03;;;;;;;12.70;3.00;;;5.20;99.90;;;;;;4956842;28;20121;-85
2022/12/27 11:09:32;;;;;;;17.63;3.10;;;5.30;99.90;;;;;;4974846;28;20158;-86
2022/12/27 11:12:27;;;;;;;14.75;2.88;;;5.30;99.90;;;;;;4957437;28;20494;-86
2022/12/27 11:15:04;;;;;;;15.48;2.72;;;5.30;99.90;;;;;;4962192;28;20169;-86
2022/12/27 11:18:15;;;;;;;13.10;2.25;;;5.40;99.90;;;;;;4987909;28;20058;-86
2022/12/27 11:20:50;;;;;;;13.13;2.60;;;5.40;99.90;;;;;;4907122;29;20078;-85
2022/12/27 11:23:21;;;;;;;17.05;2.28;;;5.40;99.90;;;;;;4886818;29;20512;-84
2022/12/27 11:25:56;;;;;;;14.40;2.85;;;5.40;99.90;;;;;;4926742;28;20082;-84
2022/12/27 11:28:37;;;;;;;11.32;2.30;;;5.40;99.90;;;;;;4975996;28;20525;-84
2022/12/27 11:31:09;;;;;;;15.15;2.45;;;5.50;99.90;;;;;;4973667;28;20047;-84
2022/12/27 11:33:39;;;;;;;16.55;2.30;;;5.50;99.90;;;;;;4956840;28;20055;-85
2022/12/27 11:36:08;;;;;;;10.80;2.50;;;5.50;99.90;;;;;;4967225;28;20065;-85
2022/12/27 11:38:36;;;;;;;14.25;2.22;;;5.60;99.90;;;;;;4976753;28;20045;-84
2022/12/27 11:41:08;;;;;;;15.25;2.20;;;5.60;99.90;;;;;;4993431;28;20050;-83
2022/12/27 11:43:59;;;;;;;15.05;2.42;;;5.70;99.90;;;;;;4975810;28;20042;-84
2022/12/27 11:47:18;;;;;;;17.38;2.40;;;5.70;99.90;;;;;;4963532;28;20046;-84
2022/12/27 11:49:57;;;;;;;11.63;2.10;;;5.80;99.90;;;;;;4898066;29;20517;-83
2022/12/27 11:52:23;;;;;;;14.23;2.10;;;5.80;99.90;;;;;;4973596;28;20525;-84
2022/12/27 11:55:14;;;;;;;16.02;3.35;;;5.80;99.90;;;;;;4957040;28;20133;-87
2022/12/27 11:58:11;;;;;;;16.52;3.03;;;5.90;99.90;;;;;;4956122;28;20117;-84
2022/12/27 12:00:52;;;;;;;18.90;2.80;;;5.90;99.90;;;;;;4974110;28;20151;-86
2022/12/27 12:03:36;;;;;;;10.73;2.40;;;5.90;99.90;;;;;;4972763;28;20058;-86
2022/12/27 12:06:14;;;;;;;12.93;2.40;;;6.00;99.90;;;;;;4969070;28;20414;-84
2022/12/27 12:09:10;;;;;;;17.30;2.20;;;6.00;99.90;;;;;;4974086;28;20129;-86
2022/12/27 12:11:54;;;;;;;16.33;2.08;;;6.00;99.90;;;;;;4973305;28;20053;-85
2022/12/27 12:14:41;;;;;;;11.45;1.98;;;6.00;99.90;;;;;;4974386;28;20482;-84
2022/12/27 12:17:33;;;;;;;14.07;2.40;;;6.00;99.90;;;;;;4951757;28;20039;-85
2022/12/27 12:20:04;;;;;;;11.85;2.28;;;6.10;99.90;;;;;;4979886;28;20495;-87
2022/12/27 12:23:04;;;;;;;14.82;2.60;;;6.10;99.90;;;;;;4949809;28;20078;-86
2022/12/27 12:25:36;;;;;;;16.10;2.72;;;6.10;99.90;;;;;;4959208;28;20050;-87
2022/12/27 12:28:39;;;;;;;12.02;2.38;;;6.10;99.90;;;;;;4959554;28;20051;-86
2022/12/27 12:31:31;;;;;;;10.73;2.40;;;6.10;99.90;;;;;;4977067;28;20047;-86
2022/12/27 12:34:13;;;;;;;14.90;2.30;;;6.10;99.90;;;;;;4967429;28;20046;-86
2022/12/27 12:36:57;;;;;;;12.70;2.92;;;6.10;99.90;;;;;;4960093;28;20051;-86
2022/12/27 12:39:41;;;;;;;15.13;2.53;;;6.10;99.90;;;;;;4956875;28;20051;-86
2022/12/27 12:42:36;;;;;;;14.48;2.63;;;6.10;99.90;;;;;;4964046;28;20114;-86
2022/12/27 12:45:19;;;;;;;13.55;2.53;;;6.10;99.90;;;;;;4959264;28;20061;-85
2022/12/27 12:48:21;;;;;;;12.15;2.40;;;6.10;99.90;;;;;;4977086;28;20486;-86
2022/12/27 12:51:11;;;;;;;15.63;2.85;;;6.20;99.90;;;;;;4980943;28;20043;-86
2022/12/27 12:54:02;;;;;;;14.43;2.80;;;6.20;99.90;;;;;;4959651;28;20047;-86
2022/12/27 12:57:14;;;;;;;12.52;2.70;;;6.20;99.90;;;;;;4966021;28;20050;-86
2022/12/27 13:00:20;;;;;;;14.63;2.90;;;6.20;99.90;;;;;;4927544;28;20050;-86
2022/12/27 13:03:13;;;;;;;18.05;3.78;;;6.20;99.90;;;;;;4958417;28;20043;-87
2022/12/27 13:05:53;;;;;;;14.65;3.58;;;6.30;99.90;;;;;;4958418;28;20062;-86
2022/12/27 13:08:33;;;;;;;14.27;3.10;;;6.30;99.90;;;;;;4973142;28;20039;-88
2022/12/27 13:11:17;;;;;;;12.98;3.30;;;6.30;99.90;;;;;;4949459;29;20103;-86
2022/12/27 13:14:12;;;;;;;21.02;3.78;;;6.30;99.90;;;;;;4974090;28;20046;-88
2022/12/27 13:17:00;;;;;;;17.13;3.08;;;6.40;99.90;;;;;;4966136;28;20046;-86
2022/12/27 13:19:39;;;;;;;14.80;3.40;;;6.40;99.90;;;;;;4989315;28;20090;-86
2022/12/27 13:22:13;;;;;;;14.75;2.97;;;6.40;99.90;;;;;;4987069;28;20101;-85
2022/12/27 13:24:49;;;;;;;12.30;3.50;;;6.40;99.90;;;;;;4948920;28;20043;-85
2022/12/27 13:27:34;;;;;;;23.08;4.00;;;6.40;99.90;;;;;;4983214;28;20121;-87
2022/12/27 13:30:14;;;;;;;14.68;3.40;;;6.50;99.90;;;;;;4958450;28;20035;-87
2022/12/27 13:33:14;;;;;;;16.33;3.50;;;6.50;99.90;;;;;;4984866;28;20038;-86
2022/12/27 13:36:00;;;;;;;15.32;3.30;;;6.50;99.90;;;;;;4949708;28;20102;-86
2022/12/27 13:38:59;;;;;;;22.08;3.40;;;6.50;99.90;;;;;;4971812;28;20050;-87
2022/12/27 13:41:43;;;;;;;10.52;3.10;;;6.50;99.90;;;;;;4958218;28;20049;-86
2022/12/27 13:44:37;;;;;;;13.43;3.03;;;6.50;99.90;;;;;;4946503;28;20051;-86
2022/12/27 13:47:33;;;;;;;15.07;3.22;;;6.50;99.90;;;;;;4938741;28;20499;-86
2022/12/27 13:50:20;;;;;;;15.25;3.38;;;6.60;99.90;;;;;;4954937;28;20048;-86
2022/12/27 13:52:54;;;;;;;16.30;3.47;;;6.60;99.90;;;;;;4956494;28;20050;-86
2022/12/27 13:55:35;;;;;;;18.67;3.83;;;6.60;99.90;;;;;;4977070;28;20117;-86
2022/12/27 13:58:32;;;;;;;12.43;3.80;;;6.60;99.90;;;;;;4954460;28;20043;-86
2022/12/27 14:01:04;;;;;;;13.75;3.95;;;6.60;99.90;;;;;;4959323;28;20114;-85
2022/12/27 14:03:48;;;;;;;16.27;4.30;;;6.60;99.90;;;;;;4963830;28;20043;-85
2022/12/27 14:06:42;;;;;;;12.02;3.97;;;6.60;99.90;;;;;;4972368;28;20053;-86
2022/12/27 14:09:22;;;;;;;17.30;4.32;;;6.60;99.90;;;;;;4960959;28;20049;-85
2022/12/27 14:12:14;;;;;;;14.07;4.07;;;6.60;99.90;;;;;;4960995;28;20134;-85
2022/12/27 14:14:41;;;;;;;15.50;4.72;;;6.60;99.90;;;;;;4965638;28;20074;-86
2022/12/27 14:17:22;;;;;;;16.48;4.45;;;6.60;99.90;;;;;;4961826;28;20121;-86
2022/12/27 14:19:53;;;;;;;15.40;5.20;;;6.60;99.90;;;;;;4966410;28;20494;-86
2022/12/27 14:22:46;;;;;;;15.57;5.22;;;6.60;99.90;;;;;;4960851;28;20110;-86
2022/12/27 14:25:50;;;;;;;14.02;5.05;;;6.60;99.90;;;;;;4969915;28;20402;-85
2022/12/27 14:28:26;;;;;;;16.52;5.68;;;6.60;99.90;;;;;;4970099;28;20051;-86
2022/12/27 14:31:03;;;;;;;16.75;5.60;;;6.60;99.90;;;;;;4974878;28;20090;-85
2022/12/27 14:34:04;;;;;;;13.52;5.80;;;6.60;99.90;;;;;;4963158;28;20050;-86
2022/12/27 14:36:35;;;;;;;16.15;5.75;;;6.60;99.90;;;;;;4957284;28;20051;-86
2022/12/27 14:39:39;;;;;;;18.30;6.13;;;6.60;99.90;;;;;;4949133;28;20038;-85
2022/12/27 14:42:31;;;;;;;16.65;5.85;;;6.60;99.90;;;;;;4964780;28;20486;-86
2022/12/27 14:45:18;;;;;;;20.20;6.35;;;6.60;99.90;;;;;;4956078;28;20043;-86
2022/12/27 14:48:02;;;;;;;15.13;6.25;;;6.50;99.90;;;;;;4964560;28;20081;-86
2022/12/27 14:51:02;;;;;;;18.55;6.60;;;6.60;99.90;;;;;;4968001;28;20049;-86
2022/12/27 14:53:40;;;;;;;13.85;5.97;;;6.50;99.90;;;;;;4958845;28;20102;-86
2022/12/27 14:56:23;;;;;;;17.35;6.05;;;6.50;99.90;;;;;;4961788;28;20046;-87
2022/12/27 14:59:07;;;;;;;18.10;6.72;;;6.50;99.90;;;;;;4973255;28;20067;-86
2022/12/27 15:01:57;;;;;;;16.40;6.90;;;6.50;99.90;;;;;;4973237;28;20046;-86
2022/12/27 15:04:33;;;;;;;17.05;8.02;;;6.50;99.90;;;;;;4974577;28;20043;-86
2022/12/27 15:07:21;;;;;;;18.15;8.30;;;6.50;99.90;;;;;;4973218;28;20054;-86